Time;durP1;ratioP1;P1;durP2;ratioP2;P2;SDS_P1;SDS_P2;PMS_P1;PMS_P2;Temp;Humidity;BMP_temperature;BMP_pressure;BME280_temperature;BME280_humidity;BME280_pressure;Samples;Min_cycle;Max_cycle;Signal;HPM_P1;HPM_P2
2022/01/29 00:01:56;;;;;;;8.50;3.60;;;0.20;1.00;;;;;;5056236;28;20200;-84
2022/01/29 00:04:23;;;;;;;10.60;3.93;;;0.20;1.00;;;;;;5055731;28;20653;-84
2022/01/29 00:06:50;;;;;;;11.60;3.17;;;0.20;1.00;;;;;;5056048;28;20220;-83
2022/01/29 00:09:18;;;;;;;11.53;3.40;;;0.10;21.70;;;;;;5055580;28;20188;-82
2022/01/29 00:11:45;;;;;;;13.43;4.00;;;0.20;59.60;;;;;;5055928;28;20285;-82
2022/01/29 00:14:12;;;;;;;13.10;3.40;;;0.20;85.60;;;;;;5073875;28;20316;-82
2022/01/29 00:16:40;;;;;;;11.43;4.03;;;0.20;99.90;;;;;;5075837;28;20221;-82
2022/01/29 00:19:07;;;;;;;13.37;4.03;;;0.30;99.90;;;;;;5075472;28;20227;-83
2022/01/29 00:21:34;;;;;;;9.43;3.27;;;0.30;99.90;;;;;;5075330;28;20809;-84
2022/01/29 00:24:02;;;;;;;9.93;3.37;;;0.40;99.90;;;;;;5075376;28;20195;-82
2022/01/29 00:26:30;;;;;;;10.63;3.33;;;0.40;99.90;;;;;;5066633;28;20212;-83
2022/01/29 00:28:58;;;;;;;12.97;3.93;;;0.40;99.90;;;;;;5055738;28;20193;-83
2022/01/29 00:31:26;;;;;;;13.60;5.20;;;0.50;99.90;;;;;;5055564;28;20200;-83
2022/01/29 00:33:53;;;;;;;12.43;4.23;;;0.50;99.90;;;;;;5055172;28;20719;-83
2022/01/29 00:36:20;;;;;;;12.97;3.73;;;0.50;99.90;;;;;;5075101;28;20192;-83
2022/01/29 00:38:47;;;;;;;9.33;4.07;;;0.50;99.90;;;;;;5075731;28;20261;-83
2022/01/29 00:41:14;;;;;;;12.37;3.90;;;0.50;99.90;;;;;;5075572;28;20191;-83
2022/01/29 00:43:42;;;;;;;17.37;4.53;;;0.60;99.90;;;;;;5075005;28;20652;-83
2022/01/29 00:46:09;;;;;;;9.43;3.53;;;0.60;99.90;;;;;;5074891;28;20684;-85
2022/01/29 00:48:36;;;;;;;15.87;4.10;;;0.70;99.90;;;;;;5075014;28;20192;-83
2022/01/29 00:51:03;;;;;;;12.97;3.70;;;0.70;99.90;;;;;;5074043;28;20595;-83
2022/01/29 00:53:31;;;;;;;13.50;3.63;;;0.70;99.90;;;;;;5075198;28;20188;-83
2022/01/29 00:55:58;;;;;;;15.17;4.03;;;0.70;99.90;;;;;;5071464;28;20561;-83
2022/01/29 00:58:25;;;;;;;15.27;4.30;;;0.70;99.90;;;;;;5054965;28;20592;-84
2022/01/29 01:00:53;;;;;;;16.30;4.80;;;0.80;99.90;;;;;;5055131;28;20197;-86
2022/01/29 01:03:20;;;;;;;13.13;4.50;;;0.80;99.90;;;;;;5054747;28;20592;-85
2022/01/29 01:05:47;;;;;;;17.80;5.63;;;0.80;99.90;;;;;;5055841;28;20755;-82
2022/01/29 01:08:14;;;;;;;16.50;4.97;;;0.90;99.90;;;;;;5054570;28;20649;-84
2022/01/29 01:10:41;;;;;;;13.33;4.70;;;0.90;99.90;;;;;;5054510;28;20277;-82
2022/01/29 01:13:08;;;;;;;10.33;4.13;;;1.00;99.90;;;;;;5054800;28;20192;-82
2022/01/29 01:15:35;;;;;;;20.50;5.10;;;1.00;99.90;;;;;;5054726;28;20205;-84
2022/01/29 01:18:04;;;;;;;13.77;4.87;;;1.00;99.90;;;;;;5054778;28;20200;-82
2022/01/29 01:20:31;;;;;;;16.80;3.93;;;1.10;99.90;;;;;;5054654;28;20193;-83
2022/01/29 01:22:58;;;;;;;13.60;4.83;;;1.10;99.90;;;;;;5054615;28;20201;-85
2022/01/29 01:25:25;;;;;;;15.77;4.20;;;1.10;99.90;;;;;;5054110;28;20231;-84
2022/01/29 01:27:52;;;;;;;12.77;3.90;;;1.20;99.90;;;;;;5054604;28;20238;-83
2022/01/29 01:30:19;;;;;;;14.10;3.90;;;1.20;99.90;;;;;;5054308;28;20582;-83
2022/01/29 01:32:46;;;;;;;17.53;4.10;;;1.20;99.90;;;;;;5054791;28;20201;-83
2022/01/29 01:35:20;;;;;;;18.47;4.77;;;1.20;99.90;;;;;;5067671;28;20246;-83
2022/01/29 01:37:51;;;;;;;17.73;4.47;;;1.20;99.90;;;;;;5074763;28;20196;-83
2022/01/29 01:40:19;;;;;;;13.00;3.83;;;1.20;99.90;;;;;;5074501;28;20192;-84
2022/01/29 01:42:47;;;;;;;15.50;4.17;;;1.20;99.90;;;;;;5073865;28;20194;-85
2022/01/29 01:45:14;;;;;;;15.53;4.23;;;1.20;99.90;;;;;;5073712;28;20195;-84
2022/01/29 01:47:41;;;;;;;21.17;5.00;;;1.20;99.90;;;;;;5070066;28;20282;-83
2022/01/29 01:50:10;;;;;;;21.43;5.03;;;1.30;99.90;;;;;;5054532;28;20196;-83
2022/01/29 01:52:38;;;;;;;16.10;5.03;;;1.30;99.90;;;;;;5053635;28;20700;-83
2022/01/29 01:55:06;;;;;;;18.30;4.70;;;1.30;99.90;;;;;;5053698;28;20595;-84
2022/01/29 01:57:33;;;;;;;17.97;5.70;;;1.30;99.90;;;;;;5053889;28;20251;-82
2022/01/29 02:00:01;;;;;;;19.00;5.40;;;1.40;99.90;;;;;;5053894;28;20194;-83
2022/01/29 02:02:28;;;;;;;16.57;4.70;;;1.50;1.00;;;;;;5053851;28;20551;-84
2022/01/29 02:04:55;;;;;;;17.80;4.33;;;1.50;1.00;;;;;;5064302;28;20317;-83
2022/01/29 02:07:22;;;;;;;22.10;5.00;;;1.50;1.00;;;;;;5073587;28;20219;-85
2022/01/29 02:09:51;;;;;;;21.43;4.77;;;1.50;1.00;;;;;;5073591;28;20195;-83
2022/01/29 02:12:18;;;;;;;16.00;4.37;;;1.50;1.00;;;;;;5070831;28;21972;-83
2022/01/29 02:14:45;;;;;;;15.93;5.23;;;1.60;1.00;;;;;;5053344;28;20196;-82
2022/01/29 02:17:13;;;;;;;20.80;4.63;;;1.60;1.00;;;;;;5053283;28;20227;-83
2022/01/29 02:19:40;;;;;;;16.30;4.53;;;1.60;1.00;;;;;;5053131;28;20197;-82
2022/01/29 02:22:08;;;;;;;15.87;4.20;;;1.60;1.00;;;;;;5053494;28;20200;-83
2022/01/29 02:24:36;;;;;;;14.20;5.30;;;1.70;1.00;;;;;;5053445;28;20192;-83
2022/01/29 02:27:03;;;;;;;16.47;4.57;;;1.70;1.00;;;;;;5053335;28;20227;-83
2022/01/29 02:29:33;;;;;;;15.47;4.27;;;1.80;1.00;;;;;;5053002;28;20197;-83
2022/01/29 02:32:00;;;;;;;19.33;4.13;;;1.80;1.00;;;;;;5053260;28;20279;-83
2022/01/29 02:34:30;;;;;;;15.53;4.90;;;1.70;1.00;;;;;;5059878;28;20180;-83
2022/01/29 02:36:57;;;;;;;14.33;4.67;;;1.70;1.00;;;;;;5073112;28;20203;-83
2022/01/29 02:39:25;;;;;;;18.47;4.03;;;1.70;1.00;;;;;;5073458;28;20202;-83
2022/01/29 02:41:52;;;;;;;16.17;3.73;;;1.70;1.00;;;;;;5073263;28;20533;-85
2022/01/29 02:44:22;;;;;;;18.00;4.25;;;1.70;1.00;;;;;;5053039;28;20600;-83
2022/01/29 02:46:52;;;;;;;15.93;3.87;;;1.70;1.00;;;;;;5052935;28;20217;-83
2022/01/29 02:49:22;;;;;;;12.50;3.27;;;1.70;1.00;;;;;;5053261;28;20196;-84
2022/01/29 02:51:50;;;;;;;18.57;4.07;;;1.70;1.00;;;;;;5052544;28;20201;-84
2022/01/29 02:54:17;;;;;;;17.67;4.13;;;1.70;1.00;;;;;;5052922;28;20193;-84
2022/01/29 02:56:46;;;;;;;18.60;3.80;;;1.70;1.00;;;;;;5052826;28;20197;-83
2022/01/29 02:59:13;;;;;;;25.17;3.63;;;1.70;1.00;;;;;;5052881;28;20192;-82
2022/01/29 03:01:42;;;;;;;14.37;3.47;;;1.70;1.00;;;;;;5052835;28;20188;-82
2022/01/29 03:04:10;;;;;;;24.47;3.87;;;1.70;1.00;;;;;;5054868;28;20185;-82
2022/01/29 03:06:37;;;;;;;19.70;3.87;;;1.70;1.00;;;;;;5052299;28;20262;-82
2022/01/29 03:09:06;;;;;;;18.80;4.23;;;1.70;1.00;;;;;;5052702;28;20193;-82
2022/01/29 03:11:33;;;;;;;11.83;3.30;;;1.70;1.00;;;;;;5052788;28;20298;-82
2022/01/29 03:14:02;;;;;;;18.60;3.93;;;1.70;1.00;;;;;;5051692;28;20554;-83
2022/01/29 03:16:29;;;;;;;19.53;4.37;;;1.70;1.00;;;;;;5052573;28;20193;-85
2022/01/29 03:18:56;;;;;;;21.77;4.50;;;1.70;1.00;;;;;;5052789;28;20188;-83
2022/01/29 03:21:23;;;;;;;18.50;4.40;;;1.70;1.00;;;;;;5052700;28;20634;-82
2022/01/29 03:23:50;;;;;;;17.73;4.10;;;1.70;1.00;;;;;;5052500;28;20663;-83
2022/01/29 03:26:17;;;;;;;19.70;4.60;;;1.70;1.00;;;;;;5052168;28;20575;-82
2022/01/29 03:28:44;;;;;;;18.17;5.40;;;1.70;1.00;;;;;;5052437;28;20318;-85
2022/01/29 03:31:12;;;;;;;15.93;4.20;;;1.70;1.00;;;;;;5052150;28;20649;-84
2022/01/29 03:33:39;;;;;;;13.97;4.23;;;1.80;1.00;;;;;;5052150;28;20192;-83
2022/01/29 03:36:07;;;;;;;17.43;5.00;;;1.80;1.00;;;;;;5054290;28;20192;-83
2022/01/29 03:38:34;;;;;;;20.00;4.47;;;1.80;1.00;;;;;;5051782;28;20189;-83
2022/01/29 03:41:01;;;;;;;21.20;4.80;;;1.80;1.00;;;;;;5052031;28;20204;-83
2022/01/29 03:43:32;;;;;;;15.90;3.80;;;1.90;1.00;;;;;;5064359;28;20630;-83
2022/01/29 03:45:59;;;;;;;16.13;4.30;;;1.90;1.00;;;;;;5072468;28;20230;-82
2022/01/29 03:48:27;;;;;;;27.13;5.10;;;1.90;1.00;;;;;;5072596;28;20197;-83
2022/01/29 03:50:54;;;;;;;21.07;4.07;;;1.90;1.00;;;;;;5072012;28;20568;-83
2022/01/29 03:53:21;;;;;;;17.80;4.57;;;1.90;1.00;;;;;;5072265;28;20188;-83
2022/01/29 03:55:48;;;;;;;16.27;4.27;;;1.90;1.00;;;;;;5072119;28;20192;-83
2022/01/29 03:58:15;;;;;;;19.07;4.70;;;1.90;1.00;;;;;;5072280;28;20188;-83
2022/01/29 04:00:42;;;;;;;18.17;4.67;;;1.90;1.00;;;;;;5072135;28;20250;-83
2022/01/29 04:03:11;;;;;;;21.70;4.90;;;1.90;1.00;;;;;;5072159;28;20246;-82
2022/01/29 04:05:39;;;;;;;16.93;5.10;;;1.90;1.00;;;;;;5054076;28;20193;-82
2022/01/29 04:08:13;;;;;;;22.93;5.37;;;1.90;1.00;;;;;;5051654;28;20217;-83
2022/01/29 04:10:41;;;;;;;19.70;4.70;;;2.00;1.00;;;;;;5052132;28;20234;-82
2022/01/29 04:13:10;;;;;;;17.07;5.03;;;2.00;1.00;;;;;;5051692;28;20284;-82
2022/01/29 04:15:37;;;;;;;17.70;4.43;;;2.00;1.00;;;;;;5051685;28;20205;-82
2022/01/29 04:18:05;;;;;;;13.83;3.43;;;2.00;1.00;;;;;;5051909;28;20255;-83
2022/01/29 04:20:32;;;;;;;19.27;4.47;;;2.10;1.00;;;;;;5052154;28;20193;-82
2022/01/29 04:23:00;;;;;;;15.53;3.77;;;2.10;1.00;;;;;;5052124;28;20193;-83
2022/01/29 04:25:28;;;;;;;14.33;3.67;;;2.10;1.00;;;;;;5053734;28;20271;-85
2022/01/29 04:27:55;;;;;;;19.53;3.97;;;2.10;1.00;;;;;;5055585;28;20212;-83
2022/01/29 04:30:29;;;;;;;19.77;5.03;;;2.10;1.00;;;;;;5055687;28;20189;-83
2022/01/29 04:33:15;;;;;;;13.43;3.20;;;2.20;1.00;;;;;;5055682;28;20176;-84
2022/01/29 04:35:42;;;;;;;13.13;3.27;;;2.20;1.00;;;;;;5072385;28;20581;-83
2022/01/29 04:38:11;;;;;;;19.60;4.50;;;2.20;1.00;;;;;;5075135;28;20192;-82
2022/01/29 04:40:38;;;;;;;20.23;4.53;;;2.10;1.00;;;;;;5075150;28;20761;-83
2022/01/29 04:43:06;;;;;;;12.77;3.07;;;2.10;1.00;;;;;;5075161;28;20187;-85
2022/01/29 04:45:33;;;;;;;16.17;4.20;;;2.10;1.00;;;;;;5075206;28;20644;-84
2022/01/29 04:48:01;;;;;;;17.30;5.20;;;2.10;1.00;;;;;;5075454;28;20211;-84
2022/01/29 04:50:28;;;;;;;12.57;3.43;;;2.00;1.00;;;;;;5074959;28;20749;-82
2022/01/29 04:52:55;;;;;;;20.70;3.83;;;2.00;1.00;;;;;;5074890;28;20201;-82
2022/01/29 04:55:23;;;;;;;15.77;4.30;;;2.00;1.00;;;;;;5074874;28;20573;-83
2022/01/29 04:57:50;;;;;;;17.40;3.60;;;2.00;1.00;;;;;;5074751;28;20253;-82
2022/01/29 05:00:20;;;;;;;24.20;4.50;;;2.00;1.00;;;;;;5074807;28;20249;-83
2022/01/29 05:02:47;;;;;;;20.80;4.90;;;2.00;1.00;;;;;;5075082;28;20260;-84
2022/01/29 05:05:14;;;;;;;23.30;5.10;;;1.90;1.00;;;;;;5058338;28;20221;-83
2022/01/29 05:07:41;;;;;;;25.40;5.50;;;1.90;1.00;;;;;;5054540;28;20680;-84
2022/01/29 05:10:09;;;;;;;25.10;6.70;;;1.90;1.00;;;;;;5054653;28;25071;-83
2022/01/29 05:12:45;;;;;;;19.00;4.63;;;1.90;1.00;;;;;;5054787;28;20185;-83
2022/01/29 05:15:19;;;;;;;22.23;5.17;;;1.90;1.00;;;;;;5054984;28;20188;-83
2022/01/29 05:29:05;;;;;;;15.13;4.97;;;1.70;1.00;;;;;;5054651;28;20268;-85
2022/01/29 05:31:32;;;;;;;19.70;5.20;;;1.80;1.00;;;;;;5054563;28;20198;-83
2022/01/29 05:33:58;;;;;;;;;;;1.70;1.00;;;;;;5059918;28;20246;-83
2022/01/29 05:36:25;;;;;;;;;;;1.70;1.00;;;;;;5074328;28;19925;-83
2022/01/29 05:38:52;;;;;;;;;;;1.70;1.00;;;;;;5074802;28;19974;-83
2022/01/29 05:41:19;;;;;;;;;;;1.70;1.00;;;;;;5074804;28;19928;-83
2022/01/29 05:43:45;;;;;;;;;;;1.70;1.00;;;;;;5074772;28;19924;-83
2022/01/29 05:46:14;;;;;;;;;;;1.70;1.00;;;;;;5074684;28;19965;-83
2022/01/29 05:48:41;;;;;;;;;;;1.70;1.00;;;;;;5074467;28;19974;-83
2022/01/29 05:51:08;;;;;;;;;;;1.70;1.00;;;;;;5074537;28;19924;-83
2022/01/29 05:53:35;;;;;;;;;;;1.70;1.00;;;;;;5074383;28;19920;-83
2022/01/29 05:56:02;;;;;;;;;;;1.70;1.00;;;;;;5074320;28;19921;-82
2022/01/29 05:58:28;;;;;;;;;;;1.60;1.00;;;;;;5074540;28;19990;-82
2022/01/29 06:00:55;;;;;;;;;;;1.60;1.00;;;;;;5073994;28;20388;-83
2022/01/29 06:03:24;;;;;;;18.20;5.70;;;1.60;1.00;;;;;;5070798;28;20431;-83
2022/01/29 06:05:51;;;;;;;21.87;6.27;;;1.60;1.00;;;;;;5053043;28;20192;-83
2022/01/29 06:08:19;;;;;;;13.20;4.60;;;1.60;1.00;;;;;;5053771;28;20214;-82
2022/01/29 06:10:46;;;;;;;;;;;1.60;1.00;;;;;;5053728;28;19928;-83
2022/01/29 06:13:14;;;;;;;;;;;1.60;1.00;;;;;;5053758;28;19979;-83
2022/01/29 06:15:42;;;;;;;;;;;1.60;1.00;;;;;;5054062;28;20047;-82
2022/01/29 06:18:12;;;;;;;;;;;1.60;1.00;;;;;;5053977;28;19979;-83
2022/01/29 06:20:40;;;;;;;;;;;1.60;1.00;;;;;;5053898;28;19929;-84
2022/01/29 06:23:07;;;;;;;;;;;1.60;1.00;;;;;;5053798;28;20433;-83
2022/01/29 06:25:34;;;;;;;;;;;1.60;1.00;;;;;;5053729;28;19947;-83
2022/01/29 06:28:00;;;;;;;;;;;1.60;1.00;;;;;;5053337;28;19979;-83
2022/01/29 06:30:27;;;;;;;;;;;1.60;1.00;;;;;;5053841;28;19961;-83
2022/01/29 06:32:54;;;;;;;;;;;1.60;1.00;;;;;;5053649;28;19971;-83
2022/01/29 06:35:20;;;;;;;;;;;1.70;1.00;;;;;;5068076;28;19978;-83
2022/01/29 06:37:49;;;;;;;;;;;1.60;1.00;;;;;;5053299;28;20335;-83
2022/01/29 06:40:15;;;;;;;;;;;1.60;1.00;;;;;;5053312;28;20439;-83
2022/01/29 06:42:42;;;;;;;;;;;1.70;1.00;;;;;;5053355;28;19925;-83
2022/01/29 06:45:09;;;;;;;;;;;1.70;1.00;;;;;;5053319;28;19973;-83
2022/01/29 06:47:36;;;;;;;;;;;1.70;1.00;;;;;;5053557;28;19924;-83
2022/01/29 06:50:03;;;;;;;;;;;1.70;1.00;;;;;;5052750;28;19925;-83
2022/01/29 06:52:30;;;;;;;;;;;1.70;1.00;;;;;;5053381;28;19924;-84
2022/01/29 06:54:58;;;;;;;;;;;1.70;1.00;;;;;;5052981;28;20347;-84
2022/01/29 06:57:25;;;;;;;;;;;1.70;1.00;;;;;;5053270;28;19971;-85
2022/01/29 06:59:51;;;;;;;;;;;1.70;1.00;;;;;;5053282;28;20328;-84
2022/01/29 07:02:18;;;;;;;;;;;1.70;1.00;;;;;;5052977;28;19978;-84
2022/01/29 07:04:45;;;;;;;;;;;1.70;1.00;;;;;;5055463;28;19925;-84
2022/01/29 07:07:11;;;;;;;;;;;1.80;1.00;;;;;;5052800;28;20285;-84
2022/01/29 07:09:38;;;;;;;;;;;1.70;1.00;;;;;;5053001;28;20451;-84
2022/01/29 07:12:11;;;;;;;;;;;1.70;1.00;;;;;;5060523;28;20311;-83
2022/01/29 07:14:39;;;;;;;;;;;1.70;1.00;;;;;;5073058;28;20373;-83
2022/01/29 07:17:10;;;;;;;26.50;11.10;;;1.70;1.00;;;;;;5072579;28;20388;-84
2022/01/29 07:19:38;;;;;;;25.53;10.30;;;1.70;1.00;;;;;;5068183;28;20263;-84
2022/01/29 07:22:05;;;;;;;35.30;15.47;;;1.60;1.00;;;;;;5052960;28;20193;-83
2022/01/29 07:24:35;;;;;;;24.63;11.97;;;1.70;1.00;;;;;;5056392;28;20216;-86
2022/01/29 07:27:02;;;;;;;28.73;11.13;;;1.70;1.00;;;;;;5059563;28;20188;-84
2022/01/29 07:29:37;;;;;;;22.73;10.60;;;1.60;1.00;;;;;;5059649;28;20266;-87
2022/01/29 07:32:14;;;;;;;20.97;9.27;;;1.60;1.00;;;;;;5057602;28;20565;-84
2022/01/29 07:34:41;;;;;;;23.73;11.67;;;1.60;1.00;;;;;;5059239;28;20637;-84
2022/01/29 07:37:19;;;;;;;25.40;11.97;;;1.60;1.00;;;;;;5059658;28;20223;-87
2022/01/29 07:39:46;;;;;;;28.17;12.93;;;1.60;1.00;;;;;;5057637;28;20537;-86
2022/01/29 07:42:20;;;;;;;25.30;12.33;;;1.60;1.00;;;;;;5064224;28;20192;-83
2022/01/29 07:44:51;;;;;;;23.03;11.27;;;1.60;1.00;;;;;;5075886;28;20195;-87
2022/01/29 07:47:18;;;;;;;20.53;10.00;;;1.60;1.00;;;;;;5088081;28;20222;-84
2022/01/29 07:49:45;;;;;;;19.37;8.97;;;1.60;1.00;;;;;;5075050;28;20192;-84
2022/01/29 07:52:12;;;;;;;18.83;9.13;;;1.60;1.00;;;;;;5063599;28;20189;-87
2022/01/29 07:54:54;;;;;;;26.03;10.03;;;1.60;1.00;;;;;;5075938;28;20188;-86
2022/01/29 07:57:21;;;;;;;15.03;8.73;;;1.60;1.00;;;;;;5057422;28;20200;-85
2022/01/29 07:59:58;;;;;;;20.60;10.70;;;1.60;1.00;;;;;;5069363;28;20218;-87
2022/01/29 08:02:25;;;;;;;17.13;8.60;;;1.60;1.00;;;;;;5061666;28;20172;-83
2022/01/29 08:05:14;;;;;;;14.63;8.50;;;1.60;1.00;;;;;;5061650;28;20192;-82
2022/01/29 08:07:41;;;;;;;15.93;8.40;;;1.60;1.00;;;;;;5076256;28;20207;-85
2022/01/29 08:10:10;;;;;;;18.57;9.43;;;1.60;1.00;;;;;;5074786;28;20253;-83
2022/01/29 08:12:47;;;;;;;16.47;9.50;;;1.60;1.00;;;;;;5064661;28;20188;-85
2022/01/29 08:15:16;;;;;;;20.10;9.87;;;1.60;1.00;;;;;;5058576;28;20234;-85
2022/01/29 08:17:46;;;;;;;21.27;10.50;;;1.60;1.00;;;;;;5059839;28;20196;-85
2022/01/29 08:20:13;;;;;;;17.90;9.60;;;1.60;1.00;;;;;;5060383;28;20237;-86
2022/01/29 08:22:40;;;;;;;17.80;9.10;;;1.60;1.00;;;;;;5082994;28;20235;-85
2022/01/29 08:25:08;;;;;;;17.20;10.07;;;1.60;1.00;;;;;;5074590;28;20254;-84
2022/01/29 08:27:35;;;;;;;20.90;10.23;;;1.60;1.00;;;;;;5068375;28;20219;-85
2022/01/29 08:30:08;;;;;;;17.73;10.37;;;1.70;1.00;;;;;;5080421;28;20546;-87
2022/01/29 08:32:41;;;;;;;19.50;10.80;;;1.70;1.00;;;;;;5086102;28;20196;-85
2022/01/29 08:35:09;;;;;;;20.33;11.40;;;1.70;1.00;;;;;;5084872;28;20195;-83
2022/01/29 08:37:40;;;;;;;23.93;12.50;;;1.70;1.00;;;;;;5083887;28;20200;-88
2022/01/29 08:40:15;;;;;;;24.53;13.13;;;1.70;1.00;;;;;;5082834;28;20196;-88
2022/01/29 08:42:42;;;;;;;21.60;12.10;;;1.60;1.00;;;;;;5086226;28;20553;-86
2022/01/29 08:45:13;;;;;;;21.30;12.23;;;1.70;1.00;;;;;;5085492;28;20200;-88
2022/01/29 08:47:42;;;;;;;13.83;8.13;;;1.70;1.00;;;;;;5080229;28;20620;-86
2022/01/29 08:50:15;;;;;;;22.77;12.90;;;1.70;5.10;;;;;;5077902;28;20271;-89
2022/01/29 08:52:43;;;;;;;19.33;10.83;;;1.60;17.70;;;;;;5076370;28;20230;-86
2022/01/29 08:55:11;;;;;;;20.17;12.37;;;1.70;20.40;;;;;;5079622;28;20667;-87
2022/01/29 08:57:42;;;;;;;23.90;13.37;;;1.70;23.50;;;;;;5059612;28;20201;-86
2022/01/29 09:00:24;;;;;;;18.93;10.90;;;1.70;24.70;;;;;;5071061;28;20712;-88
2022/01/29 09:02:52;;;;;;;20.20;10.80;;;1.70;34.40;;;;;;5063745;28;20196;-86
2022/01/29 09:05:19;;;;;;;17.63;11.23;;;1.80;35.30;;;;;;5076530;28;20253;-85
2022/01/29 09:07:47;;;;;;;21.27;11.60;;;1.80;37.00;;;;;;5074517;28;20219;-86
2022/01/29 09:10:14;;;;;;;20.27;13.10;;;1.80;40.30;;;;;;5069812;28;20259;-87
2022/01/29 09:12:55;;;;;;;22.13;12.47;;;1.80;41.70;;;;;;5067853;28;20254;-88
2022/01/29 09:15:22;;;;;;;18.67;12.20;;;1.80;42.40;;;;;;5054675;28;20200;-85
2022/01/29 09:17:49;;;;;;;22.37;13.13;;;1.80;42.20;;;;;;5054245;28;20238;-86
2022/01/29 09:23:04;;;;;;;16.43;10.37;;;1.80;45.20;;;;;;5057512;28;20207;-90
2022/01/29 09:25:38;;;;;;;18.57;10.80;;;1.80;53.40;;;;;;5061231;28;20203;-89
2022/01/29 09:28:06;;;;;;;22.70;12.10;;;1.90;59.50;;;;;;5057358;28;20252;-87
2022/01/29 09:30:34;;;;;;;19.17;11.67;;;1.90;73.60;;;;;;5055214;28;20193;-87
2022/01/29 09:33:34;;;;;;;18.07;10.80;;;1.90;90.70;;;;;;5054205;28;20273;-87
2022/01/29 09:36:16;;;;;;;18.47;8.80;;;2.00;96.80;;;;;;5057681;28;20264;-89
2022/01/29 09:38:43;;;;;;;15.33;10.77;;;2.00;99.90;;;;;;5077769;28;20195;-88
2022/01/29 09:41:10;;;;;;;15.73;10.13;;;2.00;99.90;;;;;;5057089;28;20189;-87
2022/01/29 09:43:38;;;;;;;18.50;12.33;;;2.10;99.90;;;;;;5078394;28;20220;-87
2022/01/29 09:46:16;;;;;;;19.43;12.63;;;2.00;99.90;;;;;;5074503;28;20204;-89
2022/01/29 09:48:45;;;;;;;22.87;12.10;;;2.10;99.90;;;;;;5058018;28;20233;-88
2022/01/29 09:51:13;;;;;;;17.73;11.80;;;2.10;99.90;;;;;;5053959;28;20188;-86
2022/01/29 09:53:42;;;;;;;18.93;10.60;;;2.10;99.90;;;;;;5053688;28;20533;-86
2022/01/29 09:56:10;;;;;;;19.23;11.70;;;2.20;99.90;;;;;;5053618;28;20190;-87
2022/01/29 09:58:37;;;;;;;22.00;13.20;;;2.30;99.90;;;;;;5054179;28;20503;-90
2022/01/29 10:01:04;;;;;;;17.10;11.17;;;2.30;99.90;;;;;;5061682;28;20196;-89
2022/01/29 10:03:32;;;;;;;18.80;11.07;;;2.40;99.90;;;;;;5074024;28;20196;-90
2022/01/29 10:06:00;;;;;;;19.50;11.43;;;2.50;99.90;;;;;;5073556;28;20665;-89
2022/01/29 10:08:29;;;;;;;21.33;12.47;;;2.60;99.90;;;;;;5073815;28;20219;-88
2022/01/29 10:10:59;;;;;;;17.50;11.40;;;2.60;99.90;;;;;;5072725;28;20294;-87
2022/01/29 10:13:59;;;;;;;18.27;12.03;;;2.70;99.90;;;;;;5074611;28;20238;-88
2022/01/29 10:16:28;;;;;;;20.43;12.00;;;2.70;99.90;;;;;;5073229;28;20637;-87
2022/01/29 10:19:04;;;;;;;19.23;12.00;;;2.70;99.90;;;;;;5074028;28;20201;-88
2022/01/29 10:21:33;;;;;;;19.63;12.53;;;2.80;99.90;;;;;;5073884;28;20239;-91
2022/01/29 10:24:04;;;;;;;21.13;13.23;;;2.80;99.90;;;;;;5073877;28;20290;-88
2022/01/29 10:26:34;;;;;;;19.93;11.60;;;2.80;99.90;;;;;;5074142;28;20205;-88
2022/01/29 10:29:03;;;;;;;19.20;11.23;;;2.90;99.90;;;;;;5073415;28;20243;-88
2022/01/29 10:31:41;;;;;;;18.53;11.70;;;2.90;99.90;;;;;;5063115;28;20204;-89
2022/01/29 10:34:19;;;;;;;19.23;11.90;;;2.90;99.90;;;;;;5053355;28;20610;-85
2022/01/29 10:37:07;;;;;;;22.33;13.40;;;3.00;99.90;;;;;;5053889;28;20189;-90
2022/01/29 10:39:35;;;;;;;15.60;10.67;;;3.00;99.90;;;;;;5062051;28;20192;-87
2022/01/29 10:42:14;;;;;;;18.60;12.43;;;3.10;99.90;;;;;;5073632;28;20196;-88
2022/01/29 10:44:44;;;;;;;16.87;9.60;;;3.10;99.90;;;;;;5073429;28;20591;-91
2022/01/29 10:47:43;;;;;;;17.10;10.83;;;3.20;99.90;;;;;;5074846;28;20224;-89
2022/01/29 10:50:15;;;;;;;19.53;12.03;;;3.20;99.90;;;;;;5077295;28;20218;-88
2022/01/29 10:52:43;;;;;;;17.17;10.37;;;3.30;99.90;;;;;;5076964;28;20199;-87
2022/01/29 10:55:14;;;;;;;14.23;8.73;;;3.30;99.90;;;;;;5073356;28;20307;-89
2022/01/29 10:57:43;;;;;;;16.93;10.73;;;3.40;99.90;;;;;;5065636;28;20227;-89
2022/01/29 11:00:17;;;;;;;14.07;7.77;;;3.40;99.90;;;;;;5059448;28;20185;-88
2022/01/29 11:02:53;;;;;;;16.20;9.13;;;3.50;99.90;;;;;;5074569;28;20191;-93
2022/01/29 11:05:22;;;;;;;14.87;9.50;;;3.50;99.90;;;;;;5070075;28;20199;-89
2022/01/29 11:07:52;;;;;;;10.10;7.60;;;3.50;99.90;;;;;;5055566;28;20192;-88
2022/01/29 11:10:22;;;;;;;10.50;7.70;;;3.50;99.90;;;;;;5052656;28;20316;-86
2022/01/29 11:12:50;;;;;;;11.07;7.67;;;3.60;99.90;;;;;;5058541;28;20180;-85
2022/01/29 11:15:23;;;;;;;12.07;8.10;;;3.60;99.90;;;;;;5061051;28;20310;-89
2022/01/29 11:18:02;;;;;;;12.57;8.57;;;3.60;99.90;;;;;;5061852;28;20200;-89
2022/01/29 11:20:30;;;;;;;15.73;9.93;;;3.60;99.90;;;;;;5060872;28;20614;-86
2022/01/29 11:23:00;;;;;;;12.80;7.70;;;3.60;99.90;;;;;;5059986;28;20250;-89
2022/01/29 11:25:36;;;;;;;9.17;6.63;;;3.60;99.90;;;;;;5065106;28;20192;-89
2022/01/29 11:28:16;;;;;;;10.33;6.60;;;3.70;99.90;;;;;;5082178;28;20679;-89
2022/01/29 11:31:49;;;;;;;12.50;7.40;;;3.60;99.90;;;;;;5069037;28;20282;-89
2022/01/29 11:34:28;;;;;;;9.13;6.13;;;3.70;99.90;;;;;;5051617;28;20192;-92
2022/01/29 11:37:14;;;;;;;9.93;6.60;;;3.70;99.90;;;;;;5064769;28;20275;-89
2022/01/29 11:40:31;;;;;;;9.03;6.20;;;3.70;99.90;;;;;;5062987;28;20192;-91
2022/01/29 11:43:27;;;;;;;10.93;7.03;;;3.70;99.90;;;;;;5049362;28;20201;-86
2022/01/29 11:45:58;;;;;;;12.17;7.37;;;3.80;99.90;;;;;;5066149;28;20192;-88
2022/01/29 11:48:51;;;;;;;13.23;7.87;;;3.80;99.90;;;;;;5065588;28;20192;-88
2022/01/29 11:51:50;;;;;;;10.23;6.03;;;3.80;99.90;;;;;;5065739;28;20237;-90
2022/01/29 11:54:37;;;;;;;;;;;;;;;;;;;;;
2022/01/29 11:57:14;;;;;;;10.87;7.50;;;3.90;99.90;;;;;;5063477;28;20247;-93
2022/01/29 11:59:45;;;;;;;19.17;11.93;;;3.90;99.90;;;;;;5061045;28;20196;-87
2022/01/29 12:05:30;;;;;;;15.73;8.97;;;4.00;99.90;;;;;;5065184;28;20179;-90
2022/01/29 12:08:20;;;;;;;16.40;10.47;;;4.00;99.90;;;;;;5061940;28;20568;-89
2022/01/29 12:10:56;;;;;;;15.47;9.23;;;4.10;99.90;;;;;;5063116;28;20228;-89
2022/01/29 12:13:23;;;;;;;12.63;7.50;;;4.10;99.90;;;;;;5062543;28;20613;-87
2022/01/29 12:15:52;;;;;;;11.00;7.30;;;4.20;99.90;;;;;;5061199;28;20310;-84
2022/01/29 12:18:35;;;;;;;16.63;11.07;;;4.20;99.90;;;;;;5062985;28;20259;-85
2022/01/29 12:21:06;;;;;;;19.70;12.90;;;4.30;99.90;;;;;;5072689;28;20184;-84
2022/01/29 12:23:47;;;;;;;22.50;13.97;;;4.30;99.90;;;;;;5082966;28;20196;-84
2022/01/29 12:26:29;;;;;;;22.47;13.87;;;4.30;99.90;;;;;;5079181;28;20206;-84
2022/01/29 12:29:05;;;;;;;24.17;16.17;;;4.40;99.90;;;;;;5077162;28;20294;-84
2022/01/29 12:31:34;;;;;;;15.37;10.97;;;4.40;99.90;;;;;;5062767;28;20220;-84
2022/01/29 12:34:12;;;;;;;17.83;12.53;;;4.50;99.90;;;;;;5059264;28;20633;-84
2022/01/29 12:36:42;;;;;;;14.10;9.37;;;4.50;99.90;;;;;;5060890;28;20210;-85
2022/01/29 12:39:14;;;;;;;14.67;10.33;;;4.60;99.90;;;;;;5067493;28;20171;-84
2022/01/29 12:41:45;;;;;;;20.70;11.33;;;4.60;99.90;;;;;;5073956;28;20219;-86
2022/01/29 12:44:19;;;;;;;18.93;11.57;;;4.60;99.90;;;;;;5078249;28;20223;-83
2022/01/29 12:46:48;;;;;;;12.27;7.90;;;4.70;99.90;;;;;;5080306;28;20207;-84
2022/01/29 12:49:17;;;;;;;12.93;8.87;;;4.70;99.90;;;;;;5064406;28;20704;-85
2022/01/29 12:51:52;;;;;;;18.40;11.37;;;4.80;99.90;;;;;;5063269;28;20196;-84
2022/01/29 12:54:30;;;;;;;17.17;10.60;;;4.80;99.90;;;;;;5060332;28;20227;-85
2022/01/29 12:57:00;;;;;;;14.03;8.77;;;4.80;99.90;;;;;;5054970;28;20553;-81
2022/01/29 12:59:28;;;;;;;13.53;8.40;;;4.90;99.90;;;;;;5059211;28;20193;-83
2022/01/29 13:01:57;;;;;;;19.63;11.07;;;4.90;99.90;;;;;;5059146;28;20549;-84
2022/01/29 13:04:24;;;;;;;18.53;10.30;;;4.90;99.90;;;;;;5066977;28;20192;-82
2022/01/29 13:07:03;;;;;;;21.47;12.20;;;5.00;99.90;;;;;;5077819;28;20196;-87
2022/01/29 13:09:34;;;;;;;15.67;9.07;;;5.00;99.90;;;;;;5066052;28;20206;-90
2022/01/29 13:12:03;;;;;;;21.47;11.77;;;5.10;99.90;;;;;;5060264;28;20235;-84
2022/01/29 13:14:31;;;;;;;16.00;9.33;;;5.00;99.90;;;;;;5060574;28;20251;-88
2022/01/29 13:17:02;;;;;;;;;;;5.10;99.90;;;;;;5061945;28;20029;-84
2022/01/29 13:19:30;;;;;;;;;;;5.10;99.90;;;;;;5064092;28;25081;-85
2022/01/29 13:22:01;;;;;;;;;;;5.10;99.90;;;;;;5073281;28;20237;-92
2022/01/29 13:24:37;;;;;;;;;;;5.10;99.90;;;;;;5062453;28;20183;-86
2022/01/29 13:27:08;;;;;;;;;;;5.20;99.90;;;;;;5062641;28;20238;-92
2022/01/29 13:30:01;;;;;;;16.20;9.50;;;5.20;99.90;;;;;;5068585;28;20239;-91
2022/01/29 13:33:18;;;;;;;19.20;11.10;;;5.30;99.90;;;;;;5084544;28;20183;-93
2022/01/29 13:35:57;;;;;;;18.90;10.33;;;5.30;99.90;;;;;;5082367;28;20224;-89
2022/01/29 13:38:34;;;;;;;16.57;9.70;;;5.30;99.90;;;;;;5073255;28;20240;-88